sensor_id;sensor_type;location;lat;lon;timestamp;P1;durP1;ratioP1;P2;durP2;ratioP2
41546;SDS011;27271;45.412;10.852;2023-01-29T00:01:15;17.48;;;6.50;;
41546;SDS011;27271;45.412;10.852;2023-01-29T00:04:38;19.38;;;7.35;;
41546;SDS011;27271;45.412;10.852;2023-01-29T00:08:03;20.55;;;6.32;;
41546;SDS011;27271;45.412;10.852;2023-01-29T00:11:25;20.38;;;7.03;;
41546;SDS011;27271;45.412;10.852;2023-01-29T00:14:47;16.10;;;5.80;;
41546;SDS011;27271;45.412;10.852;2023-01-29T00:18:09;17.83;;;7.45;;
41546;SDS011;27271;45.412;10.852;2023-01-29T00:21:31;16.02;;;6.32;;
41546;SDS011;27271;45.412;10.852;2023-01-29T00:24:53;21.42;;;8.55;;
41546;SDS011;27271;45.412;10.852;2023-01-29T00:28:15;23.95;;;7.78;;
41546;SDS011;27271;45.412;10.852;2023-01-29T00:31:38;14.23;;;6.53;;
41546;SDS011;27271;45.412;10.852;2023-01-29T00:35:00;14.55;;;6.85;;
41546;SDS011;27271;45.412;10.852;2023-01-29T00:38:22;17.77;;;7.13;;
41546;SDS011;27271;45.412;10.852;2023-01-29T00:41:44;22.33;;;8.60;;
41546;SDS011;27271;45.412;10.852;2023-01-29T00:45:26;14.73;;;6.72;;
41546;SDS011;27271;45.412;10.852;2023-01-29T00:48:48;18.80;;;6.30;;
41546;SDS011;27271;45.412;10.852;2023-01-29T00:52:10;24.83;;;8.30;;
41546;SDS011;27271;45.412;10.852;2023-01-29T00:55:44;18.00;;;6.40;;
41546;SDS011;27271;45.412;10.852;2023-01-29T00:59:07;18.70;;;7.47;;
41546;SDS011;27271;45.412;10.852;2023-01-29T01:02:29;15.15;;;7.20;;
41546;SDS011;27271;45.412;10.852;2023-01-29T01:06:10;20.58;;;6.82;;
41546;SDS011;27271;45.412;10.852;2023-01-29T01:09:35;18.90;;;6.82;;
41546;SDS011;27271;45.412;10.852;2023-01-29T01:13:16;13.38;;;6.15;;
41546;SDS011;27271;45.412;10.852;2023-01-29T01:16:38;12.65;;;5.93;;
41546;SDS011;27271;45.412;10.852;2023-01-29T01:20:00;15.13;;;6.20;;
41546;SDS011;27271;45.412;10.852;2023-01-29T01:23:22;18.95;;;6.45;;
41546;SDS011;27271;45.412;10.852;2023-01-29T01:26:44;17.98;;;6.63;;
41546;SDS011;27271;45.412;10.852;2023-01-29T01:30:10;21.20;;;7.15;;
41546;SDS011;27271;45.412;10.852;2023-01-29T01:33:34;18.13;;;8.25;;
41546;SDS011;27271;45.412;10.852;2023-01-29T01:36:57;18.73;;;7.22;;
41546;SDS011;27271;45.412;10.852;2023-01-29T01:40:20;20.20;;;6.72;;
41546;SDS011;27271;45.412;10.852;2023-01-29T01:43:57;18.48;;;6.63;;
41546;SDS011;27271;45.412;10.852;2023-01-29T01:47:32;18.48;;;6.97;;
41546;SDS011;27271;45.412;10.852;2023-01-29T01:51:02;13.48;;;6.57;;
41546;SDS011;27271;45.412;10.852;2023-01-29T01:54:27;15.55;;;6.75;;
41546;SDS011;27271;45.412;10.852;2023-01-29T01:57:54;17.45;;;7.13;;
41546;SDS011;27271;45.412;10.852;2023-01-29T02:01:22;11.93;;;7.35;;
41546;SDS011;27271;45.412;10.852;2023-01-29T02:04:48;16.85;;;6.60;;
41546;SDS011;27271;45.412;10.852;2023-01-29T02:12:29;17.33;;;6.18;;
41546;SDS011;27271;45.412;10.852;2023-01-29T02:15:52;13.05;;;6.38;;
41546;SDS011;27271;45.412;10.852;2023-01-29T02:19:15;20.63;;;6.82;;
41546;SDS011;27271;45.412;10.852;2023-01-29T02:37:45;14.45;;;6.07;;
41546;SDS011;27271;45.412;10.852;2023-01-29T02:41:25;17.80;;;6.28;;
41546;SDS011;27271;45.412;10.852;2023-01-29T02:48:22;14.85;;;5.93;;
41546;SDS011;27271;45.412;10.852;2023-01-29T02:51:50;19.45;;;5.30;;
41546;SDS011;27271;45.412;10.852;2023-01-29T02:55:23;14.82;;;6.55;;
41546;SDS011;27271;45.412;10.852;2023-01-29T02:58:54;13.25;;;6.22;;
41546;SDS011;27271;45.412;10.852;2023-01-29T03:02:58;13.43;;;5.03;;
41546;SDS011;27271;45.412;10.852;2023-01-29T03:06:16;9.43;;;4.78;;
41546;SDS011;27271;45.412;10.852;2023-01-29T03:09:43;11.95;;;6.05;;
41546;SDS011;27271;45.412;10.852;2023-01-29T03:13:18;14.50;;;6.13;;
41546;SDS011;27271;45.412;10.852;2023-01-29T03:16:49;15.80;;;5.47;;
41546;SDS011;27271;45.412;10.852;2023-01-29T03:20:15;10.10;;;5.30;;
41546;SDS011;27271;45.412;10.852;2023-01-29T03:23:41;12.55;;;5.75;;
41546;SDS011;27271;45.412;10.852;2023-01-29T03:27:22;20.02;;;5.57;;
41546;SDS011;27271;45.412;10.852;2023-01-29T03:31:08;17.05;;;5.00;;
41546;SDS011;27271;45.412;10.852;2023-01-29T03:34:56;15.18;;;5.60;;
41546;SDS011;27271;45.412;10.852;2023-01-29T03:38:22;17.38;;;5.70;;
41546;SDS011;27271;45.412;10.852;2023-01-29T03:41:54;15.68;;;5.47;;
41546;SDS011;27271;45.412;10.852;2023-01-29T03:45:27;20.15;;;6.53;;
41546;SDS011;27271;45.412;10.852;2023-01-29T03:49:00;12.82;;;5.88;;
41546;SDS011;27271;45.412;10.852;2023-01-29T03:59:54;18.58;;;5.50;;
41546;SDS011;27271;45.412;10.852;2023-01-29T04:03:55;15.85;;;5.90;;
41546;SDS011;27271;45.412;10.852;2023-01-29T04:07:25;15.55;;;6.20;;
41546;SDS011;27271;45.412;10.852;2023-01-29T04:10:57;15.95;;;5.32;;
41546;SDS011;27271;45.412;10.852;2023-01-29T04:14:24;13.55;;;5.45;;
41546;SDS011;27271;45.412;10.852;2023-01-29T04:17:48;17.77;;;6.47;;
41546;SDS011;27271;45.412;10.852;2023-01-29T04:21:23;15.15;;;5.47;;
41546;SDS011;27271;45.412;10.852;2023-01-29T04:24:46;15.73;;;6.07;;
41546;SDS011;27271;45.412;10.852;2023-01-29T04:28:12;16.50;;;6.30;;
41546;SDS011;27271;45.412;10.852;2023-01-29T04:31:59;15.50;;;6.32;;
41546;SDS011;27271;45.412;10.852;2023-01-29T04:39:36;20.08;;;7.20;;
41546;SDS011;27271;45.412;10.852;2023-01-29T04:43:07;17.83;;;6.55;;
41546;SDS011;27271;45.412;10.852;2023-01-29T04:50:28;17.77;;;5.90;;
41546;SDS011;27271;45.412;10.852;2023-01-29T04:54:08;20.75;;;5.60;;
41546;SDS011;27271;45.412;10.852;2023-01-29T05:01:08;16.20;;;5.60;;
41546;SDS011;27271;45.412;10.852;2023-01-29T05:04:34;19.30;;;7.13;;
41546;SDS011;27271;45.412;10.852;2023-01-29T05:07:59;18.85;;;6.03;;
41546;SDS011;27271;45.412;10.852;2023-01-29T05:11:23;14.68;;;6.07;;
41546;SDS011;27271;45.412;10.852;2023-01-29T05:14:46;15.45;;;7.20;;
41546;SDS011;27271;45.412;10.852;2023-01-29T05:18:09;12.32;;;6.45;;
41546;SDS011;27271;45.412;10.852;2023-01-29T05:21:31;20.00;;;6.45;;
41546;SDS011;27271;45.412;10.852;2023-01-29T05:24:53;16.02;;;6.03;;
41546;SDS011;27271;45.412;10.852;2023-01-29T05:28:15;15.05;;;4.72;;
41546;SDS011;27271;45.412;10.852;2023-01-29T05:31:38;12.88;;;6.40;;
41546;SDS011;27271;45.412;10.852;2023-01-29T05:35:00;17.60;;;5.88;;
41546;SDS011;27271;45.412;10.852;2023-01-29T05:38:22;12.70;;;5.20;;
41546;SDS011;27271;45.412;10.852;2023-01-29T05:41:44;17.25;;;6.32;;
41546;SDS011;27271;45.412;10.852;2023-01-29T05:45:06;19.73;;;4.97;;
41546;SDS011;27271;45.412;10.852;2023-01-29T05:48:29;12.73;;;5.85;;
41546;SDS011;27271;45.412;10.852;2023-01-29T05:51:52;15.45;;;6.45;;
41546;SDS011;27271;45.412;10.852;2023-01-29T05:55:14;17.05;;;6.32;;
41546;SDS011;27271;45.412;10.852;2023-01-29T05:58:36;15.80;;;6.50;;
41546;SDS011;27271;45.412;10.852;2023-01-29T06:01:58;17.27;;;5.82;;
41546;SDS011;27271;45.412;10.852;2023-01-29T06:05:20;11.70;;;5.20;;
41546;SDS011;27271;45.412;10.852;2023-01-29T06:08:42;15.23;;;6.55;;
41546;SDS011;27271;45.412;10.852;2023-01-29T06:12:04;19.00;;;7.13;;
41546;SDS011;27271;45.412;10.852;2023-01-29T06:15:28;18.38;;;5.57;;
41546;SDS011;27271;45.412;10.852;2023-01-29T06:18:50;19.92;;;5.80;;
41546;SDS011;27271;45.412;10.852;2023-01-29T06:22:12;18.20;;;6.95;;
41546;SDS011;27271;45.412;10.852;2023-01-29T06:25:34;19.25;;;7.55;;
41546;SDS011;27271;45.412;10.852;2023-01-29T06:28:56;12.85;;;5.97;;
41546;SDS011;27271;45.412;10.852;2023-01-29T06:32:18;13.32;;;7.00;;
41546;SDS011;27271;45.412;10.852;2023-01-29T06:35:40;18.60;;;7.63;;
41546;SDS011;27271;45.412;10.852;2023-01-29T06:39:02;17.10;;;6.55;;
41546;SDS011;27271;45.412;10.852;2023-01-29T06:42:24;9.63;;;5.50;;
41546;SDS011;27271;45.412;10.852;2023-01-29T06:49:11;17.50;;;6.50;;
41546;SDS011;27271;45.412;10.852;2023-01-29T06:52:33;13.38;;;5.78;;
41546;SDS011;27271;45.412;10.852;2023-01-29T06:55:55;19.50;;;6.93;;
41546;SDS011;27271;45.412;10.852;2023-01-29T06:59:17;19.10;;;6.88;;
41546;SDS011;27271;45.412;10.852;2023-01-29T07:02:39;19.20;;;7.15;;
41546;SDS011;27271;45.412;10.852;2023-01-29T07:06:01;21.63;;;7.65;;
41546;SDS011;27271;45.412;10.852;2023-01-29T07:09:23;30.50;;;7.85;;
41546;SDS011;27271;45.412;10.852;2023-01-29T07:12:45;24.60;;;9.35;;
41546;SDS011;27271;45.412;10.852;2023-01-29T07:16:08;11.57;;;5.28;;
41546;SDS011;27271;45.412;10.852;2023-01-29T07:19:30;17.70;;;6.47;;
41546;SDS011;27271;45.412;10.852;2023-01-29T07:22:52;15.00;;;6.13;;
41546;SDS011;27271;45.412;10.852;2023-01-29T07:26:15;13.23;;;4.90;;
41546;SDS011;27271;45.412;10.852;2023-01-29T07:29:37;19.23;;;7.50;;
41546;SDS011;27271;45.412;10.852;2023-01-29T07:33:02;16.52;;;6.90;;
41546;SDS011;27271;45.412;10.852;2023-01-29T07:36:27;14.82;;;6.82;;
41546;SDS011;27271;45.412;10.852;2023-01-29T07:39:50;16.10;;;5.93;;
41546;SDS011;27271;45.412;10.852;2023-01-29T07:43:12;15.85;;;5.93;;
41546;SDS011;27271;45.412;10.852;2023-01-29T07:46:34;19.42;;;6.28;;
41546;SDS011;27271;45.412;10.852;2023-01-29T07:49:56;11.18;;;5.50;;
41546;SDS011;27271;45.412;10.852;2023-01-29T07:53:18;16.77;;;6.82;;
41546;SDS011;27271;45.412;10.852;2023-01-29T07:56:40;13.65;;;5.90;;
41546;SDS011;27271;45.412;10.852;2023-01-29T08:00:02;28.33;;;8.25;;
41546;SDS011;27271;45.412;10.852;2023-01-29T08:03:32;17.45;;;7.57;;
41546;SDS011;27271;45.412;10.852;2023-01-29T08:06:54;19.20;;;6.78;;
41546;SDS011;27271;45.412;10.852;2023-01-29T08:10:16;16.90;;;7.20;;
41546;SDS011;27271;45.412;10.852;2023-01-29T08:13:39;30.88;;;12.00;;
41546;SDS011;27271;45.412;10.852;2023-01-29T08:17:01;29.50;;;12.75;;
41546;SDS011;27271;45.412;10.852;2023-01-29T08:20:23;51.10;;;15.77;;
41546;SDS011;27271;45.412;10.852;2023-01-29T08:23:45;41.60;;;15.82;;
41546;SDS011;27271;45.412;10.852;2023-01-29T08:27:07;27.65;;;12.38;;
41546;SDS011;27271;45.412;10.852;2023-01-29T08:30:30;27.77;;;11.63;;
41546;SDS011;27271;45.412;10.852;2023-01-29T08:33:53;19.27;;;9.82;;
41546;SDS011;27271;45.412;10.852;2023-01-29T08:37:16;17.13;;;6.75;;
41546;SDS011;27271;45.412;10.852;2023-01-29T08:40:37;13.65;;;5.70;;
41546;SDS011;27271;45.412;10.852;2023-01-29T08:43:59;13.50;;;6.10;;
41546;SDS011;27271;45.412;10.852;2023-01-29T08:47:24;22.38;;;11.18;;
41546;SDS011;27271;45.412;10.852;2023-01-29T08:50:49;24.63;;;11.65;;
41546;SDS011;27271;45.412;10.852;2023-01-29T08:54:11;21.58;;;10.27;;
41546;SDS011;27271;45.412;10.852;2023-01-29T08:57:33;14.55;;;7.20;;
41546;SDS011;27271;45.412;10.852;2023-01-29T09:00:55;13.43;;;7.07;;
41546;SDS011;27271;45.412;10.852;2023-01-29T09:04:17;25.55;;;12.48;;
41546;SDS011;27271;45.412;10.852;2023-01-29T09:07:39;12.30;;;6.47;;
41546;SDS011;27271;45.412;10.852;2023-01-29T09:11:01;14.57;;;6.63;;
41546;SDS011;27271;45.412;10.852;2023-01-29T09:14:24;16.75;;;6.20;;
41546;SDS011;27271;45.412;10.852;2023-01-29T09:17:46;15.10;;;6.15;;
41546;SDS011;27271;45.412;10.852;2023-01-29T09:21:09;14.73;;;6.93;;
41546;SDS011;27271;45.412;10.852;2023-01-29T09:24:31;17.15;;;6.88;;
41546;SDS011;27271;45.412;10.852;2023-01-29T09:27:55;12.35;;;6.40;;
41546;SDS011;27271;45.412;10.852;2023-01-29T09:31:17;14.98;;;6.13;;
41546;SDS011;27271;45.412;10.852;2023-01-29T09:34:39;16.02;;;7.07;;
41546;SDS011;27271;45.412;10.852;2023-01-29T09:38:01;9.93;;;5.03;;
41546;SDS011;27271;45.412;10.852;2023-01-29T09:45:13;12.40;;;5.07;;
41546;SDS011;27271;45.412;10.852;2023-01-29T09:48:41;9.47;;;5.10;;
41546;SDS011;27271;45.412;10.852;2023-01-29T09:52:05;13.07;;;5.00;;
41546;SDS011;27271;45.412;10.852;2023-01-29T09:55:57;8.80;;;3.72;;
41546;SDS011;27271;45.412;10.852;2023-01-29T09:59:20;11.20;;;5.05;;
41546;SDS011;27271;45.412;10.852;2023-01-29T10:10:34;15.40;;;8.88;;
41546;SDS011;27271;45.412;10.852;2023-01-29T10:24:51;13.37;;;6.17;;
41546;SDS011;27271;45.412;10.852;2023-01-29T10:28:34;11.68;;;5.85;;
41546;SDS011;27271;45.412;10.852;2023-01-29T10:32:03;15.57;;;6.22;;
41546;SDS011;27271;45.412;10.852;2023-01-29T10:35:28;11.63;;;5.88;;
41546;SDS011;27271;45.412;10.852;2023-01-29T10:38:59;15.23;;;6.25;;
41546;SDS011;27271;45.412;10.852;2023-01-29T10:42:23;11.48;;;5.35;;
41546;SDS011;27271;45.412;10.852;2023-01-29T10:45:55;11.53;;;5.60;;
41546;SDS011;27271;45.412;10.852;2023-01-29T11:00:22;12.25;;;5.70;;
41546;SDS011;27271;45.412;10.852;2023-01-29T11:03:58;13.80;;;6.13;;
41546;SDS011;27271;45.412;10.852;2023-01-29T11:07:22;13.80;;;6.63;;
41546;SDS011;27271;45.412;10.852;2023-01-29T11:14:55;12.23;;;5.75;;
41546;SDS011;27271;45.412;10.852;2023-01-29T11:19:15;11.77;;;5.38;;
41546;SDS011;27271;45.412;10.852;2023-01-29T11:22:19;11.07;;;5.03;;
41546;SDS011;27271;45.412;10.852;2023-01-29T11:25:44;10.15;;;5.43;;
41546;SDS011;27271;45.412;10.852;2023-01-29T11:33:18;12.85;;;5.47;;
41546;SDS011;27271;45.412;10.852;2023-01-29T11:36:42;12.23;;;5.80;;
41546;SDS011;27271;45.412;10.852;2023-01-29T11:43:39;12.52;;;5.55;;
41546;SDS011;27271;45.412;10.852;2023-01-29T11:47:11;12.65;;;6.15;;
41546;SDS011;27271;45.412;10.852;2023-01-29T11:50:54;14.85;;;7.18;;
41546;SDS011;27271;45.412;10.852;2023-01-29T11:54:18;13.98;;;5.57;;
41546;SDS011;27271;45.412;10.852;2023-01-29T11:57:45;14.50;;;5.18;;
41546;SDS011;27271;45.412;10.852;2023-01-29T12:01:15;14.18;;;6.57;;
41546;SDS011;27271;45.412;10.852;2023-01-29T12:04:43;14.67;;;5.93;;
41546;SDS011;27271;45.412;10.852;2023-01-29T12:08:14;17.55;;;7.03;;
41546;SDS011;27271;45.412;10.852;2023-01-29T12:11:38;10.32;;;5.30;;
41546;SDS011;27271;45.412;10.852;2023-01-29T12:15:04;11.27;;;6.00;;
41546;SDS011;27271;45.412;10.852;2023-01-29T12:18:36;12.88;;;5.82;;
41546;SDS011;27271;45.412;10.852;2023-01-29T12:22:03;15.82;;;5.75;;
41546;SDS011;27271;45.412;10.852;2023-01-29T12:32:56;10.35;;;5.75;;
41546;SDS011;27271;45.412;10.852;2023-01-29T12:37:21;12.23;;;5.63;;
41546;SDS011;27271;45.412;10.852;2023-01-29T12:41:29;14.63;;;5.97;;
41546;SDS011;27271;45.412;10.852;2023-01-29T12:45:02;14.02;;;6.35;;
41546;SDS011;27271;45.412;10.852;2023-01-29T12:48:34;12.93;;;6.78;;
41546;SDS011;27271;45.412;10.852;2023-01-29T12:55:29;16.33;;;6.80;;
41546;SDS011;27271;45.412;10.852;2023-01-29T12:58:58;13.32;;;7.07;;
41546;SDS011;27271;45.412;10.852;2023-01-29T13:02:30;15.02;;;6.63;;
41546;SDS011;27271;45.412;10.852;2023-01-29T13:06:10;19.08;;;7.85;;
41546;SDS011;27271;45.412;10.852;2023-01-29T13:09:35;19.38;;;8.05;;
41546;SDS011;27271;45.412;10.852;2023-01-29T13:13:04;19.55;;;7.72;;
41546;SDS011;27271;45.412;10.852;2023-01-29T13:16:44;23.63;;;10.00;;
41546;SDS011;27271;45.412;10.852;2023-01-29T13:23:54;16.40;;;6.93;;
41546;SDS011;27271;45.412;10.852;2023-01-29T13:27:30;14.30;;;6.60;;
41546;SDS011;27271;45.412;10.852;2023-01-29T13:34:44;12.82;;;6.82;;
41546;SDS011;27271;45.412;10.852;2023-01-29T13:38:21;13.98;;;6.55;;
41546;SDS011;27271;45.412;10.852;2023-01-29T13:41:54;12.02;;;6.30;;
41546;SDS011;27271;45.412;10.852;2023-01-29T13:45:22;14.00;;;6.88;;
41546;SDS011;27271;45.412;10.852;2023-01-29T13:48:55;16.92;;;5.93;;
41546;SDS011;27271;45.412;10.852;2023-01-29T13:59:56;12.70;;;6.28;;
41546;SDS011;27271;45.412;10.852;2023-01-29T14:06:48;12.48;;;6.57;;
41546;SDS011;27271;45.412;10.852;2023-01-29T14:10:23;15.75;;;6.72;;
41546;SDS011;27271;45.412;10.852;2023-01-29T14:13:50;15.40;;;7.03;;
41546;SDS011;27271;45.412;10.852;2023-01-29T14:17:13;18.83;;;7.35;;
41546;SDS011;27271;45.412;10.852;2023-01-29T14:20:37;17.58;;;7.07;;
41546;SDS011;27271;45.412;10.852;2023-01-29T14:27:30;23.77;;;8.18;;
41546;SDS011;27271;45.412;10.852;2023-01-29T14:30:53;19.02;;;8.57;;
41546;SDS011;27271;45.412;10.852;2023-01-29T14:37:40;18.58;;;7.88;;
41546;SDS011;27271;45.412;10.852;2023-01-29T14:41:17;19.55;;;7.88;;
41546;SDS011;27271;45.412;10.852;2023-01-29T14:44:51;19.10;;;9.60;;
41546;SDS011;27271;45.412;10.852;2023-01-29T14:48:45;19.08;;;7.53;;
41546;SDS011;27271;45.412;10.852;2023-01-29T14:52:09;26.00;;;10.43;;
41546;SDS011;27271;45.412;10.852;2023-01-29T14:59:11;26.55;;;12.07;;
41546;SDS011;27271;45.412;10.852;2023-01-29T15:02:37;20.67;;;8.77;;
41546;SDS011;27271;45.412;10.852;2023-01-29T15:06:04;23.63;;;8.90;;
41546;SDS011;27271;45.412;10.852;2023-01-29T15:13:21;16.38;;;7.55;;
41546;SDS011;27271;45.412;10.852;2023-01-29T15:20:40;20.92;;;7.97;;
41546;SDS011;27271;45.412;10.852;2023-01-29T15:24:04;20.33;;;9.32;;
41546;SDS011;27271;45.412;10.852;2023-01-29T15:27:27;20.77;;;9.05;;
41546;SDS011;27271;45.412;10.852;2023-01-29T15:30:51;23.38;;;9.32;;
41546;SDS011;27271;45.412;10.852;2023-01-29T15:34:16;21.20;;;9.35;;
41546;SDS011;27271;45.412;10.852;2023-01-29T15:37:38;23.38;;;9.00;;
41546;SDS011;27271;45.412;10.852;2023-01-29T15:41:02;24.48;;;8.88;;
41546;SDS011;27271;45.412;10.852;2023-01-29T15:44:43;17.77;;;8.25;;
41546;SDS011;27271;45.412;10.852;2023-01-29T15:48:10;19.42;;;8.38;;
41546;SDS011;27271;45.412;10.852;2023-01-29T15:51:36;19.45;;;8.25;;
41546;SDS011;27271;45.412;10.852;2023-01-29T15:55:03;20.58;;;9.02;;
41546;SDS011;27271;45.412;10.852;2023-01-29T15:58:28;15.45;;;7.15;;
41546;SDS011;27271;45.412;10.852;2023-01-29T16:01:52;21.38;;;9.10;;
41546;SDS011;27271;45.412;10.852;2023-01-29T16:05:16;26.60;;;9.65;;
41546;SDS011;27271;45.412;10.852;2023-01-29T16:08:42;19.48;;;9.38;;
41546;SDS011;27271;45.412;10.852;2023-01-29T16:12:09;20.60;;;9.52;;
41546;SDS011;27271;45.412;10.852;2023-01-29T16:15:36;21.00;;;8.32;;
41546;SDS011;27271;45.412;10.852;2023-01-29T16:19:00;19.33;;;7.93;;
41546;SDS011;27271;45.412;10.852;2023-01-29T16:22:34;27.02;;;10.02;;
41546;SDS011;27271;45.412;10.852;2023-01-29T16:26:01;22.25;;;8.95;;
41546;SDS011;27271;45.412;10.852;2023-01-29T16:29:28;24.10;;;8.77;;
41546;SDS011;27271;45.412;10.852;2023-01-29T16:32:52;24.63;;;10.10;;
41546;SDS011;27271;45.412;10.852;2023-01-29T16:36:22;20.70;;;9.38;;
41546;SDS011;27271;45.412;10.852;2023-01-29T16:39:48;23.40;;;9.30;;
41546;SDS011;27271;45.412;10.852;2023-01-29T16:46:43;25.45;;;9.50;;
41546;SDS011;27271;45.412;10.852;2023-01-29T16:54:05;22.13;;;10.20;;
41546;SDS011;27271;45.412;10.852;2023-01-29T16:57:29;18.77;;;9.13;;
41546;SDS011;27271;45.412;10.852;2023-01-29T17:00:55;24.83;;;10.43;;
41546;SDS011;27271;45.412;10.852;2023-01-29T17:04:23;22.00;;;9.60;;
41546;SDS011;27271;45.412;10.852;2023-01-29T17:07:46;22.02;;;9.73;;
41546;SDS011;27271;45.412;10.852;2023-01-29T17:11:08;21.05;;;9.18;;
41546;SDS011;27271;45.412;10.852;2023-01-29T17:14:32;21.75;;;9.40;;
41546;SDS011;27271;45.412;10.852;2023-01-29T17:17:56;27.85;;;9.20;;
41546;SDS011;27271;45.412;10.852;2023-01-29T17:21:18;24.08;;;9.80;;
41546;SDS011;27271;45.412;10.852;2023-01-29T17:24:41;20.10;;;9.25;;
41546;SDS011;27271;45.412;10.852;2023-01-29T17:28:03;23.63;;;9.30;;
41546;SDS011;27271;45.412;10.852;2023-01-29T17:31:25;20.58;;;8.73;;
41546;SDS011;27271;45.412;10.852;2023-01-29T17:34:48;26.58;;;9.93;;
41546;SDS011;27271;45.412;10.852;2023-01-29T17:38:13;22.30;;;9.27;;
41546;SDS011;27271;45.412;10.852;2023-01-29T17:41:48;24.15;;;8.65;;
41546;SDS011;27271;45.412;10.852;2023-01-29T17:45:15;22.20;;;9.43;;
41546;SDS011;27271;45.412;10.852;2023-01-29T17:48:37;23.35;;;9.15;;
41546;SDS011;27271;45.412;10.852;2023-01-29T17:51:59;23.77;;;10.18;;
41546;SDS011;27271;45.412;10.852;2023-01-29T17:55:22;23.15;;;10.18;;
41546;SDS011;27271;45.412;10.852;2023-01-29T17:58:44;26.15;;;9.93;;
41546;SDS011;27271;45.412;10.852;2023-01-29T18:02:06;30.20;;;10.07;;
41546;SDS011;27271;45.412;10.852;2023-01-29T18:05:48;25.33;;;10.05;;
41546;SDS011;27271;45.412;10.852;2023-01-29T18:09:11;25.40;;;10.65;;
41546;SDS011;27271;45.412;10.852;2023-01-29T18:12:34;25.80;;;11.40;;
41546;SDS011;27271;45.412;10.852;2023-01-29T18:15:56;28.30;;;10.63;;
41546;SDS011;27271;45.412;10.852;2023-01-29T18:19:19;26.40;;;10.85;;
41546;SDS011;27271;45.412;10.852;2023-01-29T18:22:43;31.92;;;11.02;;
41546;SDS011;27271;45.412;10.852;2023-01-29T18:26:05;23.75;;;9.90;;
41546;SDS011;27271;45.412;10.852;2023-01-29T18:29:28;31.15;;;12.80;;
41546;SDS011;27271;45.412;10.852;2023-01-29T18:32:50;29.25;;;11.15;;
41546;SDS011;27271;45.412;10.852;2023-01-29T18:36:13;26.27;;;11.55;;
41546;SDS011;27271;45.412;10.852;2023-01-29T18:39:35;23.75;;;10.20;;
41546;SDS011;27271;45.412;10.852;2023-01-29T18:42:57;24.90;;;11.52;;
41546;SDS011;27271;45.412;10.852;2023-01-29T18:46:21;28.23;;;12.18;;
41546;SDS011;27271;45.412;10.852;2023-01-29T18:49:44;28.73;;;10.75;;
41546;SDS011;27271;45.412;10.852;2023-01-29T18:53:07;26.48;;;12.02;;
41546;SDS011;27271;45.412;10.852;2023-01-29T18:56:29;29.33;;;13.52;;
41546;SDS011;27271;45.412;10.852;2023-01-29T18:59:51;26.75;;;12.57;;
41546;SDS011;27271;45.412;10.852;2023-01-29T19:03:13;33.22;;;13.00;;
41546;SDS011;27271;45.412;10.852;2023-01-29T19:06:35;30.60;;;12.98;;
41546;SDS011;27271;45.412;10.852;2023-01-29T19:09:58;30.77;;;12.15;;
41546;SDS011;27271;45.412;10.852;2023-01-29T19:13:22;28.60;;;10.95;;
41546;SDS011;27271;45.412;10.852;2023-01-29T19:16:44;25.38;;;11.63;;
41546;SDS011;27271;45.412;10.852;2023-01-29T19:20:07;29.20;;;12.55;;
41546;SDS011;27271;45.412;10.852;2023-01-29T19:23:29;33.58;;;12.93;;
41546;SDS011;27271;45.412;10.852;2023-01-29T19:26:52;38.17;;;15.27;;
41546;SDS011;27271;45.412;10.852;2023-01-29T19:30:15;32.92;;;14.40;;
41546;SDS011;27271;45.412;10.852;2023-01-29T19:33:37;31.02;;;12.68;;
41546;SDS011;27271;45.412;10.852;2023-01-29T19:36:59;46.60;;;17.75;;
41546;SDS011;27271;45.412;10.852;2023-01-29T19:40:21;39.55;;;14.70;;
41546;SDS011;27271;45.412;10.852;2023-01-29T19:43:44;43.15;;;17.13;;
41546;SDS011;27271;45.412;10.852;2023-01-29T19:47:08;43.45;;;17.55;;
41546;SDS011;27271;45.412;10.852;2023-01-29T19:50:30;39.47;;;15.90;;
41546;SDS011;27271;45.412;10.852;2023-01-29T19:53:52;40.65;;;15.23;;
41546;SDS011;27271;45.412;10.852;2023-01-29T19:57:14;36.58;;;14.30;;
41546;SDS011;27271;45.412;10.852;2023-01-29T20:00:36;31.52;;;13.98;;
41546;SDS011;27271;45.412;10.852;2023-01-29T20:03:58;32.22;;;13.82;;
41546;SDS011;27271;45.412;10.852;2023-01-29T20:07:20;32.00;;;11.77;;
41546;SDS011;27271;45.412;10.852;2023-01-29T20:10:43;31.77;;;12.88;;
41546;SDS011;27271;45.412;10.852;2023-01-29T20:14:06;32.40;;;12.88;;
41546;SDS011;27271;45.412;10.852;2023-01-29T20:17:28;34.38;;;12.25;;
41546;SDS011;27271;45.412;10.852;2023-01-29T20:20:50;32.03;;;12.05;;
41546;SDS011;27271;45.412;10.852;2023-01-29T20:24:14;35.75;;;12.15;;
41546;SDS011;27271;45.412;10.852;2023-01-29T20:27:36;33.15;;;12.63;;
41546;SDS011;27271;45.412;10.852;2023-01-29T20:30:57;31.05;;;13.68;;
41546;SDS011;27271;45.412;10.852;2023-01-29T20:34:20;29.25;;;12.15;;
41546;SDS011;27271;45.412;10.852;2023-01-29T20:37:42;30.00;;;12.48;;
41546;SDS011;27271;45.412;10.852;2023-01-29T20:41:08;41.53;;;14.75;;
41546;SDS011;27271;45.412;10.852;2023-01-29T20:44:36;29.02;;;12.93;;
41546;SDS011;27271;45.412;10.852;2023-01-29T20:47:58;26.83;;;13.43;;
41546;SDS011;27271;45.412;10.852;2023-01-29T20:51:20;33.47;;;14.32;;
41546;SDS011;27271;45.412;10.852;2023-01-29T20:54:42;37.00;;;14.63;;
41546;SDS011;27271;45.412;10.852;2023-01-29T20:58:04;37.38;;;15.63;;
41546;SDS011;27271;45.412;10.852;2023-01-29T21:01:27;38.22;;;16.17;;
41546;SDS011;27271;45.412;10.852;2023-01-29T21:04:49;37.35;;;15.68;;
41546;SDS011;27271;45.412;10.852;2023-01-29T21:08:11;39.90;;;17.30;;
41546;SDS011;27271;45.412;10.852;2023-01-29T21:11:33;42.97;;;16.65;;
41546;SDS011;27271;45.412;10.852;2023-01-29T21:14:55;41.55;;;15.95;;
41546;SDS011;27271;45.412;10.852;2023-01-29T21:18:18;29.17;;;12.95;;
41546;SDS011;27271;45.412;10.852;2023-01-29T21:21:40;32.30;;;13.80;;
41546;SDS011;27271;45.412;10.852;2023-01-29T21:25:02;38.00;;;14.88;;
41546;SDS011;27271;45.412;10.852;2023-01-29T21:28:24;38.90;;;13.68;;
41546;SDS011;27271;45.412;10.852;2023-01-29T21:31:46;28.95;;;12.88;;
41546;SDS011;27271;45.412;10.852;2023-01-29T21:35:08;37.53;;;13.32;;
41546;SDS011;27271;45.412;10.852;2023-01-29T21:38:31;36.58;;;12.80;;
41546;SDS011;27271;45.412;10.852;2023-01-29T21:41:53;34.40;;;13.35;;
41546;SDS011;27271;45.412;10.852;2023-01-29T21:48:57;34.58;;;12.40;;
41546;SDS011;27271;45.412;10.852;2023-01-29T21:52:19;34.05;;;13.20;;
41546;SDS011;27271;45.412;10.852;2023-01-29T21:55:40;31.65;;;13.48;;
41546;SDS011;27271;45.412;10.852;2023-01-29T21:59:03;34.75;;;14.00;;
41546;SDS011;27271;45.412;10.852;2023-01-29T22:02:25;36.65;;;13.93;;
41546;SDS011;27271;45.412;10.852;2023-01-29T22:05:51;35.28;;;14.10;;
41546;SDS011;27271;45.412;10.852;2023-01-29T22:09:13;36.80;;;13.85;;
41546;SDS011;27271;45.412;10.852;2023-01-29T22:12:36;32.65;;;12.63;;
41546;SDS011;27271;45.412;10.852;2023-01-29T22:15:58;38.85;;;15.02;;
41546;SDS011;27271;45.412;10.852;2023-01-29T22:19:20;33.53;;;13.02;;
41546;SDS011;27271;45.412;10.852;2023-01-29T22:22:42;32.65;;;13.23;;
41546;SDS011;27271;45.412;10.852;2023-01-29T22:26:05;40.20;;;14.80;;
41546;SDS011;27271;45.412;10.852;2023-01-29T22:29:29;29.40;;;12.77;;